sensor_id;sensor_type;location;lat;lon;timestamp;P1;durP1;ratioP1;P2;durP2;ratioP2
38379;SDS011;38377;47.418;18.882;2024-02-14T00:01:50;8.10;;;4.47;;
38379;SDS011;38377;47.418;18.882;2024-02-14T00:04:16;10.03;;;5.73;;
38379;SDS011;38377;47.418;18.882;2024-02-14T00:06:41;11.13;;;5.90;;
38379;SDS011;38377;47.418;18.882;2024-02-14T00:09:08;7.43;;;4.70;;
38379;SDS011;38377;47.418;18.882;2024-02-14T00:11:34;8.50;;;5.50;;
38379;SDS011;38377;47.418;18.882;2024-02-14T00:13:59;8.97;;;5.40;;
38379;SDS011;38377;47.418;18.882;2024-02-14T00:16:25;8.63;;;5.30;;
38379;SDS011;38377;47.418;18.882;2024-02-14T00:18:55;8.33;;;4.73;;
38379;SDS011;38377;47.418;18.882;2024-02-14T00:21:21;9.27;;;5.30;;
38379;SDS011;38377;47.418;18.882;2024-02-14T00:23:47;11.10;;;6.87;;
38379;SDS011;38377;47.418;18.882;2024-02-14T00:26:13;9.33;;;5.63;;
38379;SDS011;38377;47.418;18.882;2024-02-14T00:28:39;9.17;;;5.13;;
38379;SDS011;38377;47.418;18.882;2024-02-14T00:31:06;7.33;;;5.40;;
38379;SDS011;38377;47.418;18.882;2024-02-14T00:33:31;9.67;;;5.43;;
38379;SDS011;38377;47.418;18.882;2024-02-14T00:35:57;10.13;;;6.33;;
38379;SDS011;38377;47.418;18.882;2024-02-14T00:38:22;9.07;;;5.50;;
38379;SDS011;38377;47.418;18.882;2024-02-14T00:40:48;9.63;;;4.93;;
38379;SDS011;38377;47.418;18.882;2024-02-14T00:43:13;9.80;;;5.63;;
38379;SDS011;38377;47.418;18.882;2024-02-14T00:45:39;10.83;;;4.60;;
38379;SDS011;38377;47.418;18.882;2024-02-14T00:48:05;8.97;;;5.27;;
38379;SDS011;38377;47.418;18.882;2024-02-14T00:50:32;7.83;;;4.90;;
38379;SDS011;38377;47.418;18.882;2024-02-14T00:52:58;7.63;;;4.87;;
38379;SDS011;38377;47.418;18.882;2024-02-14T00:55:24;9.60;;;5.43;;
38379;SDS011;38377;47.418;18.882;2024-02-14T00:57:50;7.63;;;4.87;;
38379;SDS011;38377;47.418;18.882;2024-02-14T01:00:15;8.10;;;5.20;;
38379;SDS011;38377;47.418;18.882;2024-02-14T01:02:42;9.93;;;6.13;;
38379;SDS011;38377;47.418;18.882;2024-02-14T01:05:08;9.07;;;5.03;;
38379;SDS011;38377;47.418;18.882;2024-02-14T01:07:34;7.60;;;4.90;;
38379;SDS011;38377;47.418;18.882;2024-02-14T01:10:00;9.03;;;4.90;;
38379;SDS011;38377;47.418;18.882;2024-02-14T01:12:26;7.23;;;3.93;;
38379;SDS011;38377;47.418;18.882;2024-02-14T01:14:51;7.87;;;4.70;;
38379;SDS011;38377;47.418;18.882;2024-02-14T01:17:17;7.17;;;4.23;;
38379;SDS011;38377;47.418;18.882;2024-02-14T01:19:43;8.80;;;4.03;;
38379;SDS011;38377;47.418;18.882;2024-02-14T01:22:08;7.17;;;5.00;;
38379;SDS011;38377;47.418;18.882;2024-02-14T01:24:34;6.17;;;4.30;;
38379;SDS011;38377;47.418;18.882;2024-02-14T01:27:00;6.30;;;4.50;;
38379;SDS011;38377;47.418;18.882;2024-02-14T01:29:25;6.97;;;4.87;;
38379;SDS011;38377;47.418;18.882;2024-02-14T01:31:52;6.73;;;4.30;;
38379;SDS011;38377;47.418;18.882;2024-02-14T01:34:17;8.57;;;4.83;;
38379;SDS011;38377;47.418;18.882;2024-02-14T01:36:43;10.27;;;4.23;;
38379;SDS011;38377;47.418;18.882;2024-02-14T01:39:09;7.43;;;4.93;;
38379;SDS011;38377;47.418;18.882;2024-02-14T01:41:44;7.53;;;4.10;;
38379;SDS011;38377;47.418;18.882;2024-02-14T01:44:11;9.37;;;4.43;;
38379;SDS011;38377;47.418;18.882;2024-02-14T01:46:37;7.97;;;4.67;;
38379;SDS011;38377;47.418;18.882;2024-02-14T01:49:03;7.17;;;4.07;;
38379;SDS011;38377;47.418;18.882;2024-02-14T01:51:29;7.07;;;4.20;;
38379;SDS011;38377;47.418;18.882;2024-02-14T01:53:56;6.27;;;4.03;;
38379;SDS011;38377;47.418;18.882;2024-02-14T01:56:23;6.23;;;3.67;;
38379;SDS011;38377;47.418;18.882;2024-02-14T01:58:50;8.80;;;4.10;;
38379;SDS011;38377;47.418;18.882;2024-02-14T02:01:17;5.53;;;3.80;;
38379;SDS011;38377;47.418;18.882;2024-02-14T02:03:43;5.70;;;4.03;;
38379;SDS011;38377;47.418;18.882;2024-02-14T02:06:08;6.20;;;3.73;;
38379;SDS011;38377;47.418;18.882;2024-02-14T02:08:34;5.57;;;3.90;;
38379;SDS011;38377;47.418;18.882;2024-02-14T02:11:00;6.47;;;4.20;;
38379;SDS011;38377;47.418;18.882;2024-02-14T02:13:26;7.63;;;3.80;;
38379;SDS011;38377;47.418;18.882;2024-02-14T02:15:53;6.40;;;4.00;;
38379;SDS011;38377;47.418;18.882;2024-02-14T02:18:18;4.90;;;3.10;;
38379;SDS011;38377;47.418;18.882;2024-02-14T02:20:44;7.63;;;3.80;;
38379;SDS011;38377;47.418;18.882;2024-02-14T02:23:13;8.47;;;3.73;;
38379;SDS011;38377;47.418;18.882;2024-02-14T02:25:40;7.23;;;3.83;;
38379;SDS011;38377;47.418;18.882;2024-02-14T02:28:06;4.63;;;3.37;;
38379;SDS011;38377;47.418;18.882;2024-02-14T02:30:33;6.50;;;3.87;;
38379;SDS011;38377;47.418;18.882;2024-02-14T02:33:00;4.87;;;2.93;;
38379;SDS011;38377;47.418;18.882;2024-02-14T02:35:27;5.20;;;3.03;;
38379;SDS011;38377;47.418;18.882;2024-02-14T02:37:53;6.70;;;3.33;;
38379;SDS011;38377;47.418;18.882;2024-02-14T02:40:19;7.33;;;2.90;;
38379;SDS011;38377;47.418;18.882;2024-02-14T02:42:46;5.17;;;3.90;;
38379;SDS011;38377;47.418;18.882;2024-02-14T02:45:12;5.33;;;3.47;;
38379;SDS011;38377;47.418;18.882;2024-02-14T02:47:38;7.40;;;3.60;;
38379;SDS011;38377;47.418;18.882;2024-02-14T02:50:04;8.47;;;4.77;;
38379;SDS011;38377;47.418;18.882;2024-02-14T02:52:31;6.37;;;3.80;;
38379;SDS011;38377;47.418;18.882;2024-02-14T02:54:56;6.07;;;3.53;;
38379;SDS011;38377;47.418;18.882;2024-02-14T02:57:22;9.30;;;4.33;;
38379;SDS011;38377;47.418;18.882;2024-02-14T02:59:48;7.43;;;3.93;;
38379;SDS011;38377;47.418;18.882;2024-02-14T03:02:14;7.40;;;3.63;;
38379;SDS011;38377;47.418;18.882;2024-02-14T03:04:40;6.97;;;4.00;;
38379;SDS011;38377;47.418;18.882;2024-02-14T03:07:07;6.93;;;3.90;;
38379;SDS011;38377;47.418;18.882;2024-02-14T03:09:34;5.97;;;3.57;;
38379;SDS011;38377;47.418;18.882;2024-02-14T03:12:02;5.63;;;3.67;;
38379;SDS011;38377;47.418;18.882;2024-02-14T03:14:28;8.20;;;4.10;;
38379;SDS011;38377;47.418;18.882;2024-02-14T03:16:57;7.20;;;3.90;;
38379;SDS011;38377;47.418;18.882;2024-02-14T03:19:26;8.03;;;4.17;;
38379;SDS011;38377;47.418;18.882;2024-02-14T03:21:53;5.50;;;4.00;;
38379;SDS011;38377;47.418;18.882;2024-02-14T03:24:19;7.20;;;4.27;;
38379;SDS011;38377;47.418;18.882;2024-02-14T03:26:45;6.77;;;4.07;;
38379;SDS011;38377;47.418;18.882;2024-02-14T03:29:11;9.63;;;4.33;;
38379;SDS011;38377;47.418;18.882;2024-02-14T03:31:37;7.13;;;4.00;;
38379;SDS011;38377;47.418;18.882;2024-02-14T03:34:03;8.30;;;4.43;;
38379;SDS011;38377;47.418;18.882;2024-02-14T03:36:28;9.63;;;5.27;;
38379;SDS011;38377;47.418;18.882;2024-02-14T03:38:56;9.73;;;5.30;;
38379;SDS011;38377;47.418;18.882;2024-02-14T03:41:23;8.33;;;5.00;;
38379;SDS011;38377;47.418;18.882;2024-02-14T03:43:49;13.13;;;5.37;;
38379;SDS011;38377;47.418;18.882;2024-02-14T03:46:17;6.83;;;4.63;;
38379;SDS011;38377;47.418;18.882;2024-02-14T03:48:46;9.23;;;5.63;;
38379;SDS011;38377;47.418;18.882;2024-02-14T03:51:12;8.10;;;5.17;;
38379;SDS011;38377;47.418;18.882;2024-02-14T03:53:38;8.60;;;5.23;;
38379;SDS011;38377;47.418;18.882;2024-02-14T03:56:04;7.93;;;5.17;;
38379;SDS011;38377;47.418;18.882;2024-02-14T03:58:32;9.03;;;5.53;;
38379;SDS011;38377;47.418;18.882;2024-02-14T04:01:02;9.27;;;5.30;;
38379;SDS011;38377;47.418;18.882;2024-02-14T04:03:28;10.07;;;5.10;;
38379;SDS011;38377;47.418;18.882;2024-02-14T04:05:54;11.30;;;5.77;;
38379;SDS011;38377;47.418;18.882;2024-02-14T04:08:20;7.43;;;4.57;;
38379;SDS011;38377;47.418;18.882;2024-02-14T04:10:45;10.33;;;5.17;;
38379;SDS011;38377;47.418;18.882;2024-02-14T04:13:11;12.80;;;5.23;;
38379;SDS011;38377;47.418;18.882;2024-02-14T04:15:37;10.83;;;5.63;;
38379;SDS011;38377;47.418;18.882;2024-02-14T04:18:02;12.67;;;6.50;;
38379;SDS011;38377;47.418;18.882;2024-02-14T04:20:31;11.07;;;6.33;;
38379;SDS011;38377;47.418;18.882;2024-02-14T04:22:56;10.17;;;5.97;;
38379;SDS011;38377;47.418;18.882;2024-02-14T04:25:23;9.80;;;5.87;;
38379;SDS011;38377;47.418;18.882;2024-02-14T04:27:49;9.30;;;5.30;;
38379;SDS011;38377;47.418;18.882;2024-02-14T04:30:14;8.30;;;4.37;;
38379;SDS011;38377;47.418;18.882;2024-02-14T04:32:40;10.80;;;5.03;;
38379;SDS011;38377;47.418;18.882;2024-02-14T04:35:08;11.30;;;5.73;;
38379;SDS011;38377;47.418;18.882;2024-02-14T04:37:34;8.73;;;4.77;;
38379;SDS011;38377;47.418;18.882;2024-02-14T04:39:59;10.80;;;5.53;;
38379;SDS011;38377;47.418;18.882;2024-02-14T04:42:25;9.13;;;6.00;;
38379;SDS011;38377;47.418;18.882;2024-02-14T04:44:54;9.67;;;5.60;;
38379;SDS011;38377;47.418;18.882;2024-02-14T04:47:19;10.73;;;5.60;;
38379;SDS011;38377;47.418;18.882;2024-02-14T04:49:45;9.23;;;5.07;;
38379;SDS011;38377;47.418;18.882;2024-02-14T04:52:11;13.67;;;5.83;;
38379;SDS011;38377;47.418;18.882;2024-02-14T04:54:36;10.27;;;5.73;;
38379;SDS011;38377;47.418;18.882;2024-02-14T04:57:02;10.03;;;6.60;;
38379;SDS011;38377;47.418;18.882;2024-02-14T04:59:29;9.33;;;5.23;;
38379;SDS011;38377;47.418;18.882;2024-02-14T05:01:55;8.03;;;5.03;;
38379;SDS011;38377;47.418;18.882;2024-02-14T05:04:21;12.00;;;5.50;;
38379;SDS011;38377;47.418;18.882;2024-02-14T05:06:47;10.03;;;5.60;;
38379;SDS011;38377;47.418;18.882;2024-02-14T05:09:13;13.17;;;5.73;;
38379;SDS011;38377;47.418;18.882;2024-02-14T05:11:40;12.03;;;5.17;;
38379;SDS011;38377;47.418;18.882;2024-02-14T05:14:05;7.73;;;5.30;;
38379;SDS011;38377;47.418;18.882;2024-02-14T05:16:31;9.33;;;5.33;;
38379;SDS011;38377;47.418;18.882;2024-02-14T05:18:56;10.27;;;4.73;;
38379;SDS011;38377;47.418;18.882;2024-02-14T05:21:22;9.30;;;5.33;;
38379;SDS011;38377;47.418;18.882;2024-02-14T05:23:48;10.73;;;5.67;;
38379;SDS011;38377;47.418;18.882;2024-02-14T05:26:14;7.60;;;5.40;;
38379;SDS011;38377;47.418;18.882;2024-02-14T05:28:40;8.73;;;5.07;;
38379;SDS011;38377;47.418;18.882;2024-02-14T05:31:06;9.93;;;5.20;;
38379;SDS011;38377;47.418;18.882;2024-02-14T05:33:32;11.83;;;6.73;;
38379;SDS011;38377;47.418;18.882;2024-02-14T05:35:58;9.80;;;5.30;;
38379;SDS011;38377;47.418;18.882;2024-02-14T05:38:23;12.03;;;5.80;;
38379;SDS011;38377;47.418;18.882;2024-02-14T05:40:49;24.20;;;6.43;;
38379;SDS011;38377;47.418;18.882;2024-02-14T05:43:15;11.07;;;6.27;;
38379;SDS011;38377;47.418;18.882;2024-02-14T05:45:41;10.80;;;6.40;;
38379;SDS011;38377;47.418;18.882;2024-02-14T05:48:07;10.90;;;6.20;;
38379;SDS011;38377;47.418;18.882;2024-02-14T05:50:33;9.50;;;5.90;;
38379;SDS011;38377;47.418;18.882;2024-02-14T05:52:59;12.63;;;6.50;;
38379;SDS011;38377;47.418;18.882;2024-02-14T05:55:25;13.27;;;7.03;;
38379;SDS011;38377;47.418;18.882;2024-02-14T05:57:51;14.23;;;7.10;;
38379;SDS011;38377;47.418;18.882;2024-02-14T06:00:22;13.40;;;8.13;;
38379;SDS011;38377;47.418;18.882;2024-02-14T06:02:48;12.40;;;6.70;;
38379;SDS011;38377;47.418;18.882;2024-02-14T06:05:14;10.50;;;6.60;;
38379;SDS011;38377;47.418;18.882;2024-02-14T06:07:40;10.00;;;6.13;;
38379;SDS011;38377;47.418;18.882;2024-02-14T06:10:07;10.40;;;5.40;;
38379;SDS011;38377;47.418;18.882;2024-02-14T06:12:33;10.93;;;6.00;;
38379;SDS011;38377;47.418;18.882;2024-02-14T06:15:00;11.37;;;6.20;;
38379;SDS011;38377;47.418;18.882;2024-02-14T06:17:26;11.23;;;6.03;;
38379;SDS011;38377;47.418;18.882;2024-02-14T06:19:52;14.70;;;7.97;;
38379;SDS011;38377;47.418;18.882;2024-02-14T06:22:18;16.73;;;8.93;;
38379;SDS011;38377;47.418;18.882;2024-02-14T06:24:44;15.10;;;8.10;;
38379;SDS011;38377;47.418;18.882;2024-02-14T06:27:09;16.73;;;7.93;;
38379;SDS011;38377;47.418;18.882;2024-02-14T06:29:35;15.13;;;6.90;;
38379;SDS011;38377;47.418;18.882;2024-02-14T06:32:01;10.30;;;6.03;;
38379;SDS011;38377;47.418;18.882;2024-02-14T06:34:27;13.53;;;7.00;;
38379;SDS011;38377;47.418;18.882;2024-02-14T06:36:53;15.87;;;7.97;;
38379;SDS011;38377;47.418;18.882;2024-02-14T06:39:19;11.83;;;6.57;;
38379;SDS011;38377;47.418;18.882;2024-02-14T06:41:45;11.63;;;7.37;;
38379;SDS011;38377;47.418;18.882;2024-02-14T06:44:12;11.33;;;6.83;;
38379;SDS011;38377;47.418;18.882;2024-02-14T06:46:38;16.27;;;7.60;;
38379;SDS011;38377;47.418;18.882;2024-02-14T06:49:04;13.67;;;7.57;;
38379;SDS011;38377;47.418;18.882;2024-02-14T06:51:29;11.70;;;6.83;;
38379;SDS011;38377;47.418;18.882;2024-02-14T06:53:55;16.40;;;7.50;;
38379;SDS011;38377;47.418;18.882;2024-02-14T06:56:21;14.90;;;8.60;;
38379;SDS011;38377;47.418;18.882;2024-02-14T06:58:47;12.00;;;7.27;;
38379;SDS011;38377;47.418;18.882;2024-02-14T07:01:17;12.10;;;7.90;;
38379;SDS011;38377;47.418;18.882;2024-02-14T07:03:47;39.27;;;15.47;;
38379;SDS011;38377;47.418;18.882;2024-02-14T07:06:13;29.67;;;13.50;;
38379;SDS011;38377;47.418;18.882;2024-02-14T07:08:41;21.70;;;10.80;;
38379;SDS011;38377;47.418;18.882;2024-02-14T07:11:07;20.63;;;8.93;;
38379;SDS011;38377;47.418;18.882;2024-02-14T07:13:32;18.23;;;8.90;;
38379;SDS011;38377;47.418;18.882;2024-02-14T07:15:58;11.93;;;7.23;;
38379;SDS011;38377;47.418;18.882;2024-02-14T07:18:24;12.23;;;7.30;;
38379;SDS011;38377;47.418;18.882;2024-02-14T07:20:49;18.13;;;8.60;;
38379;SDS011;38377;47.418;18.882;2024-02-14T07:23:15;14.27;;;6.10;;
38379;SDS011;38377;47.418;18.882;2024-02-14T07:25:41;11.20;;;6.13;;
38379;SDS011;38377;47.418;18.882;2024-02-14T07:28:08;8.37;;;4.97;;
38379;SDS011;38377;47.418;18.882;2024-02-14T07:30:33;9.07;;;4.50;;
38379;SDS011;38377;47.418;18.882;2024-02-14T07:32:59;6.28;;;4.18;;
38379;SDS011;38377;47.418;18.882;2024-02-14T07:35:24;8.18;;;4.70;;
38379;SDS011;38377;47.418;18.882;2024-02-14T07:37:50;4.53;;;3.13;;
38379;SDS011;38377;47.418;18.882;2024-02-14T07:40:16;6.68;;;3.50;;
38379;SDS011;38377;47.418;18.882;2024-02-14T07:42:42;7.07;;;3.65;;
38379;SDS011;38377;47.418;18.882;2024-02-14T07:45:08;9.48;;;4.47;;
38379;SDS011;38377;47.418;18.882;2024-02-14T07:47:34;6.40;;;3.58;;
38379;SDS011;38377;47.418;18.882;2024-02-14T07:49:59;7.57;;;3.83;;
38379;SDS011;38377;47.418;18.882;2024-02-14T07:52:25;5.00;;;3.17;;
38379;SDS011;38377;47.418;18.882;2024-02-14T07:54:52;3.85;;;3.05;;
38379;SDS011;38377;47.418;18.882;2024-02-14T07:57:19;5.20;;;2.70;;
38379;SDS011;38377;47.418;18.882;2024-02-14T07:59:45;4.45;;;3.00;;
38379;SDS011;38377;47.418;18.882;2024-02-14T08:02:10;5.95;;;3.33;;
38379;SDS011;38377;47.418;18.882;2024-02-14T08:04:36;5.47;;;3.03;;
38379;SDS011;38377;47.418;18.882;2024-02-14T08:07:01;5.75;;;3.25;;
38379;SDS011;38377;47.418;18.882;2024-02-14T08:09:27;5.03;;;3.10;;
38379;SDS011;38377;47.418;18.882;2024-02-14T08:11:54;4.60;;;2.63;;
38379;SDS011;38377;47.418;18.882;2024-02-14T08:14:20;4.45;;;2.60;;
38379;SDS011;38377;47.418;18.882;2024-02-14T08:16:46;5.65;;;3.13;;
38379;SDS011;38377;47.418;18.882;2024-02-14T08:19:11;7.28;;;4.10;;
38379;SDS011;38377;47.418;18.882;2024-02-14T08:21:37;4.72;;;3.15;;
38379;SDS011;38377;47.418;18.882;2024-02-14T08:24:02;5.43;;;3.72;;
38379;SDS011;38377;47.418;18.882;2024-02-14T08:26:28;6.03;;;3.13;;
38379;SDS011;38377;47.418;18.882;2024-02-14T08:28:54;5.82;;;3.75;;
38379;SDS011;38377;47.418;18.882;2024-02-14T08:31:19;9.13;;;3.97;;
38379;SDS011;38377;47.418;18.882;2024-02-14T08:33:45;7.18;;;4.47;;
38379;SDS011;38377;47.418;18.882;2024-02-14T08:36:11;7.63;;;3.55;;
38379;SDS011;38377;47.418;18.882;2024-02-14T08:38:36;7.72;;;3.75;;
38379;SDS011;38377;47.418;18.882;2024-02-14T08:41:02;5.85;;;3.25;;
38379;SDS011;38377;47.418;18.882;2024-02-14T08:43:29;7.95;;;4.00;;
38379;SDS011;38377;47.418;18.882;2024-02-14T08:45:55;5.00;;;3.10;;
38379;SDS011;38377;47.418;18.882;2024-02-14T08:48:21;5.40;;;3.28;;
38379;SDS011;38377;47.418;18.882;2024-02-14T08:50:47;5.95;;;3.45;;
38379;SDS011;38377;47.418;18.882;2024-02-14T08:53:13;5.90;;;3.83;;
38379;SDS011;38377;47.418;18.882;2024-02-14T08:55:41;5.22;;;3.33;;
38379;SDS011;38377;47.418;18.882;2024-02-14T08:58:07;5.72;;;3.58;;
38379;SDS011;38377;47.418;18.882;2024-02-14T09:00:37;5.30;;;3.33;;
38379;SDS011;38377;47.418;18.882;2024-02-14T09:03:03;6.28;;;4.10;;
38379;SDS011;38377;47.418;18.882;2024-02-14T09:05:29;3.80;;;2.55;;
38379;SDS011;38377;47.418;18.882;2024-02-14T09:07:55;4.25;;;2.67;;
38379;SDS011;38377;47.418;18.882;2024-02-14T09:10:21;5.68;;;2.72;;
38379;SDS011;38377;47.418;18.882;2024-02-14T09:12:47;4.20;;;2.63;;
38379;SDS011;38377;47.418;18.882;2024-02-14T09:15:12;7.38;;;3.00;;
38379;SDS011;38377;47.418;18.882;2024-02-14T09:17:38;5.15;;;3.03;;
38379;SDS011;38377;47.418;18.882;2024-02-14T09:20:06;4.60;;;3.15;;
38379;SDS011;38377;47.418;18.882;2024-02-14T09:22:34;9.80;;;3.53;;
38379;SDS011;38377;47.418;18.882;2024-02-14T09:25:01;8.35;;;3.72;;
38379;SDS011;38377;47.418;18.882;2024-02-14T09:27:29;6.70;;;3.42;;
38379;SDS011;38377;47.418;18.882;2024-02-14T09:29:55;6.40;;;3.58;;
38379;SDS011;38377;47.418;18.882;2024-02-14T09:32:21;6.35;;;3.83;;
38379;SDS011;38377;47.418;18.882;2024-02-14T09:34:46;7.68;;;3.95;;
38379;SDS011;38377;47.418;18.882;2024-02-14T09:37:12;6.68;;;3.85;;
38379;SDS011;38377;47.418;18.882;2024-02-14T09:39:38;4.80;;;3.00;;
38379;SDS011;38377;47.418;18.882;2024-02-14T09:42:07;8.23;;;3.10;;
38379;SDS011;38377;47.418;18.882;2024-02-14T09:44:35;7.47;;;3.80;;
38379;SDS011;38377;47.418;18.882;2024-02-14T09:47:02;6.03;;;3.40;;
38379;SDS011;38377;47.418;18.882;2024-02-14T09:49:30;5.72;;;3.22;;
38379;SDS011;38377;47.418;18.882;2024-02-14T09:51:57;7.20;;;3.60;;
38379;SDS011;38377;47.418;18.882;2024-02-14T09:54:26;8.35;;;4.93;;
38379;SDS011;38377;47.418;18.882;2024-02-14T09:56:52;11.30;;;5.70;;
38379;SDS011;38377;47.418;18.882;2024-02-14T09:59:18;5.07;;;3.30;;
38379;SDS011;38377;47.418;18.882;2024-02-14T10:01:45;4.10;;;2.60;;
38379;SDS011;38377;47.418;18.882;2024-02-14T10:04:13;4.68;;;2.30;;
38379;SDS011;38377;47.418;18.882;2024-02-14T10:06:38;3.88;;;3.00;;
38379;SDS011;38377;47.418;18.882;2024-02-14T10:09:04;7.18;;;3.35;;
38379;SDS011;38377;47.418;18.882;2024-02-14T10:11:30;5.60;;;2.90;;
38379;SDS011;38377;47.418;18.882;2024-02-14T10:13:57;4.22;;;2.70;;
38379;SDS011;38377;47.418;18.882;2024-02-14T10:16:27;8.43;;;5.35;;
38379;SDS011;38377;47.418;18.882;2024-02-14T10:18:52;7.07;;;3.72;;
38379;SDS011;38377;47.418;18.882;2024-02-14T10:21:18;12.40;;;6.28;;
38379;SDS011;38377;47.418;18.882;2024-02-14T10:23:44;10.88;;;5.72;;
38379;SDS011;38377;47.418;18.882;2024-02-14T10:26:17;6.95;;;4.00;;
38379;SDS011;38377;47.418;18.882;2024-02-14T10:28:45;6.07;;;4.05;;
38379;SDS011;38377;47.418;18.882;2024-02-14T10:31:11;8.82;;;4.53;;
38379;SDS011;38377;47.418;18.882;2024-02-14T10:33:36;7.15;;;4.90;;
38379;SDS011;38377;47.418;18.882;2024-02-14T10:36:02;5.50;;;3.42;;
38379;SDS011;38377;47.418;18.882;2024-02-14T10:38:32;7.28;;;4.03;;
38379;SDS011;38377;47.418;18.882;2024-02-14T10:40:58;7.70;;;3.83;;
38379;SDS011;38377;47.418;18.882;2024-02-14T10:43:25;7.43;;;4.90;;
38379;SDS011;38377;47.418;18.882;2024-02-14T10:45:52;5.72;;;3.97;;
38379;SDS011;38377;47.418;18.882;2024-02-14T10:48:19;7.32;;;3.50;;
38379;SDS011;38377;47.418;18.882;2024-02-14T10:53:18;6.53;;;4.07;;
38379;SDS011;38377;47.418;18.882;2024-02-14T10:55:45;4.68;;;3.28;;
38379;SDS011;38377;47.418;18.882;2024-02-14T10:58:12;5.70;;;3.40;;
38379;SDS011;38377;47.418;18.882;2024-02-14T11:00:41;7.05;;;4.30;;
38379;SDS011;38377;47.418;18.882;2024-02-14T11:03:08;6.82;;;4.20;;
38379;SDS011;38377;47.418;18.882;2024-02-14T11:05:44;7.05;;;3.92;;
38379;SDS011;38377;47.418;18.882;2024-02-14T11:08:13;5.95;;;4.22;;
38379;SDS011;38377;47.418;18.882;2024-02-14T11:10:40;8.48;;;4.30;;
38379;SDS011;38377;47.418;18.882;2024-02-14T11:13:09;8.82;;;4.68;;
38379;SDS011;38377;47.418;18.882;2024-02-14T11:15:39;6.93;;;3.95;;
38379;SDS011;38377;47.418;18.882;2024-02-14T11:18:05;6.97;;;4.50;;
38379;SDS011;38377;47.418;18.882;2024-02-14T11:20:34;6.68;;;3.95;;
38379;SDS011;38377;47.418;18.882;2024-02-14T11:23:01;7.63;;;4.72;;
38379;SDS011;38377;47.418;18.882;2024-02-14T11:25:29;9.25;;;4.57;;
38379;SDS011;38377;47.418;18.882;2024-02-14T11:27:57;6.82;;;4.63;;
38379;SDS011;38377;47.418;18.882;2024-02-14T11:30:28;9.30;;;4.68;;
38379;SDS011;38377;47.418;18.882;2024-02-14T11:32:55;7.63;;;4.20;;
38379;SDS011;38377;47.418;18.882;2024-02-14T11:35:20;7.82;;;4.53;;
38379;SDS011;38377;47.418;18.882;2024-02-14T11:37:52;7.78;;;4.50;;
38379;SDS011;38377;47.418;18.882;2024-02-14T11:40:19;10.05;;;5.53;;
38379;SDS011;38377;47.418;18.882;2024-02-14T11:42:45;14.93;;;5.53;;
38379;SDS011;38377;47.418;18.882;2024-02-14T11:45:12;10.23;;;4.80;;
38379;SDS011;38377;47.418;18.882;2024-02-14T11:47:38;12.05;;;6.32;;
38379;SDS011;38377;47.418;18.882;2024-02-14T11:50:04;10.55;;;5.93;;
38379;SDS011;38377;47.418;18.882;2024-02-14T11:52:31;6.60;;;4.57;;
38379;SDS011;38377;47.418;18.882;2024-02-14T11:54:57;10.48;;;6.00;;
38379;SDS011;38377;47.418;18.882;2024-02-14T11:57:25;7.88;;;4.15;;
38379;SDS011;38377;47.418;18.882;2024-02-14T11:59:51;5.93;;;3.92;;
38379;SDS011;38377;47.418;18.882;2024-02-14T12:02:18;7.88;;;4.72;;
38379;SDS011;38377;47.418;18.882;2024-02-14T12:04:45;6.07;;;3.50;;
38379;SDS011;38377;47.418;18.882;2024-02-14T12:07:11;3.90;;;3.03;;
38379;SDS011;38377;47.418;18.882;2024-02-14T12:09:38;5.03;;;3.25;;
38379;SDS011;38377;47.418;18.882;2024-02-14T12:12:04;7.30;;;3.97;;
38379;SDS011;38377;47.418;18.882;2024-02-14T12:14:30;7.30;;;4.57;;
38379;SDS011;38377;47.418;18.882;2024-02-14T12:17:00;6.30;;;2.63;;
38379;SDS011;38377;47.418;18.882;2024-02-14T12:19:27;5.13;;;2.88;;
38379;SDS011;38377;47.418;18.882;2024-02-14T12:21:55;3.78;;;2.70;;
38379;SDS011;38377;47.418;18.882;2024-02-14T12:24:26;6.20;;;3.75;;
38379;SDS011;38377;47.418;18.882;2024-02-14T12:26:53;4.65;;;3.22;;
38379;SDS011;38377;47.418;18.882;2024-02-14T12:29:19;6.13;;;3.53;;
38379;SDS011;38377;47.418;18.882;2024-02-14T12:31:45;4.78;;;3.63;;
38379;SDS011;38377;47.418;18.882;2024-02-14T12:34:11;3.38;;;2.75;;
38379;SDS011;38377;47.418;18.882;2024-02-14T12:36:36;3.92;;;2.78;;
38379;SDS011;38377;47.418;18.882;2024-02-14T12:39:03;4.72;;;2.67;;
38379;SDS011;38377;47.418;18.882;2024-02-14T12:41:29;3.15;;;2.70;;
38379;SDS011;38377;47.418;18.882;2024-02-14T12:43:55;3.60;;;2.38;;
38379;SDS011;38377;47.418;18.882;2024-02-14T12:46:21;6.18;;;2.53;;
38379;SDS011;38377;47.418;18.882;2024-02-14T12:48:47;4.72;;;3.33;;
38379;SDS011;38377;47.418;18.882;2024-02-14T12:51:15;3.42;;;2.60;;
38379;SDS011;38377;47.418;18.882;2024-02-14T12:53:41;4.13;;;2.35;;
38379;SDS011;38377;47.418;18.882;2024-02-14T12:56:07;5.68;;;2.25;;
38379;SDS011;38377;47.418;18.882;2024-02-14T12:58:33;4.63;;;2.47;;
38379;SDS011;38377;47.418;18.882;2024-02-14T13:00:59;4.07;;;2.22;;
38379;SDS011;38377;47.418;18.882;2024-02-14T13:03:26;4.35;;;2.45;;
38379;SDS011;38377;47.418;18.882;2024-02-14T13:05:53;3.17;;;2.35;;
38379;SDS011;38377;47.418;18.882;2024-02-14T13:08:19;3.80;;;2.20;;
38379;SDS011;38377;47.418;18.882;2024-02-14T13:10:45;4.28;;;2.22;;
38379;SDS011;38377;47.418;18.882;2024-02-14T13:13:11;5.38;;;2.45;;
38379;SDS011;38377;47.418;18.882;2024-02-14T13:15:37;3.78;;;2.25;;
38379;SDS011;38377;47.418;18.882;2024-02-14T13:18:03;4.93;;;2.80;;
38379;SDS011;38377;47.418;18.882;2024-02-14T13:20:29;5.20;;;3.08;;
38379;SDS011;38377;47.418;18.882;2024-02-14T13:22:54;6.80;;;2.92;;
38379;SDS011;38377;47.418;18.882;2024-02-14T13:25:20;7.65;;;3.38;;
38379;SDS011;38377;47.418;18.882;2024-02-14T13:27:46;4.63;;;2.75;;
38379;SDS011;38377;47.418;18.882;2024-02-14T13:30:12;6.35;;;3.15;;
38379;SDS011;38377;47.418;18.882;2024-02-14T13:32:39;4.72;;;2.95;;
38379;SDS011;38377;47.418;18.882;2024-02-14T13:35:05;11.15;;;6.15;;
38379;SDS011;38377;47.418;18.882;2024-02-14T13:37:31;7.80;;;3.90;;
38379;SDS011;38377;47.418;18.882;2024-02-14T13:39:57;8.93;;;4.30;;
38379;SDS011;38377;47.418;18.882;2024-02-14T13:42:23;6.55;;;3.83;;
38379;SDS011;38377;47.418;18.882;2024-02-14T13:48:11;5.63;;;3.65;;
38379;SDS011;38377;47.418;18.882;2024-02-14T13:50:37;7.60;;;4.38;;
38379;SDS011;38377;47.418;18.882;2024-02-14T13:53:03;3.88;;;2.60;;
38379;SDS011;38377;47.418;18.882;2024-02-14T13:55:29;6.80;;;3.70;;
38379;SDS011;38377;47.418;18.882;2024-02-14T13:57:55;6.70;;;3.83;;
38379;SDS011;38377;47.418;18.882;2024-02-14T14:00:20;6.78;;;3.15;;
38379;SDS011;38377;47.418;18.882;2024-02-14T14:02:46;4.63;;;2.75;;
38379;SDS011;38377;47.418;18.882;2024-02-14T14:05:12;9.43;;;4.30;;
38379;SDS011;38377;47.418;18.882;2024-02-14T14:07:38;11.07;;;5.90;;
38379;SDS011;38377;47.418;18.882;2024-02-14T14:10:05;7.00;;;3.10;;
38379;SDS011;38377;47.418;18.882;2024-02-14T14:12:32;11.32;;;5.35;;
38379;SDS011;38377;47.418;18.882;2024-02-14T14:14:58;8.15;;;4.95;;
38379;SDS011;38377;47.418;18.882;2024-02-14T14:17:26;7.78;;;4.50;;
38379;SDS011;38377;47.418;18.882;2024-02-14T14:19:52;5.38;;;3.05;;
38379;SDS011;38377;47.418;18.882;2024-02-14T14:22:19;3.72;;;2.70;;
38379;SDS011;38377;47.418;18.882;2024-02-14T14:24:44;6.35;;;2.97;;
38379;SDS011;38377;47.418;18.882;2024-02-14T14:27:10;5.55;;;2.85;;
38379;SDS011;38377;47.418;18.882;2024-02-14T14:29:42;5.82;;;3.45;;
38379;SDS011;38377;47.418;18.882;2024-02-14T14:32:08;5.03;;;2.90;;